Latest Weather Observations for Bellambi

IDN60901

Issued at 6:02 pm EST Saturday 5 September 2026 (issued every 10 minutes, with the page automatically refreshed every 10 minutes)

About weather observations | Map of Sydney area stations | Latest observations for Sydney area | Other Formats
Station Details ID: 068228 Name: BELLAMBI AWS Lat: -34.37 Lon: 150.93 Height: 10.0 m
Data from the previous 72 hours. | See also: Recent months at Bellambi
Date/Time
EST
Temp
°C
App
Temp
°C
Dew
Point
°C
Rel
Hum
%
Delta-T
°C
Wind Press
QNH
hPa
Press
MSL
hPa
Rain since
9am
mm
Dir  Spd
km/h
Gust
km/h
Spd
kts
Gust
kts
05/06:00pm 21.9 17.3 11.0 50 6.0 NNW 26 37 14 20 - - 0.0
05/05:30pm 22.6 17.9 10.7 47 6.6 NW 26 35 14 19 - - 0.0
05/05:27pm 22.4 18.1 10.9 48 6.4 NW 24 35 13 19 - - 0.0
05/05:17pm 22.9 17.6 10.0 44 7.0 NW 28 50 15 27 - - 0.0
05/05:00pm 22.9 20.3 10.7 46 6.7 WNW 15 22 8 12 - - 0.0
05/04:30pm 23.7 19.7 10.4 43 7.3 WSW 22 35 12 19 - - 0.0
05/04:26pm 23.8 19.8 10.5 43 7.4 SW 22 35 12 19 - - 0.0
05/04:00pm 25.6 19.4 9.4 36 8.9 WSW 32 61 17 33 - - 0.0
05/03:35pm 26.7 20.5 9.5 34 9.5 SW 32 56 17 30 - - 0.0
05/03:30pm 27.6 21.4 9.4 32 10.1 SW 32 57 17 31 - - 0.0
05/03:25pm 28.2 23.2 9.5 31 10.4 SW 26 57 14 31 - - 0.0
05/03:22pm 28.5 24.3 9.7 31 10.5 WSW 22 39 12 21 - - 0.0
05/03:02pm 29.1 22.7 9.3 29 11.0 SW 33 57 18 31 - - 0.0
05/03:00pm 28.8 22.2 8.5 28 11.1 SW 33 65 18 35 - - 0.0
05/02:52pm 29.3 22.8 8.9 28 11.3 SW 33 65 18 35 - - 0.0
05/02:39pm 29.7 23.0 8.2 26 11.8 WSW 33 54 18 29 - - 0.0
05/02:37pm 29.9 23.0 8.9 27 11.7 WSW 35 57 19 31 - - 0.0
05/02:35pm 30.0 22.6 8.4 26 11.9 WSW 37 57 20 31 - - 0.0
05/02:30pm 29.5 21.3 8.0 26 11.7 WSW 41 74 22 40 - - 0.0
05/02:25pm 29.6 22.0 7.5 25 12.0 WSW 37 74 20 40 - - 0.0
05/02:13pm 30.5 22.9 7.7 24 12.4 WSW 37 52 20 28 - - 0.0
05/02:10pm 30.5 22.9 7.7 24 12.4 W 37 59 20 32 - - 0.0
05/02:03pm 30.6 25.4 8.9 26 12.1 W 26 59 14 32 - - 0.0
05/02:00pm 29.7 25.5 9.8 29 11.2 W 22 37 12 20 - - 0.0
05/01:30pm 28.2 25.2 12.5 37 9.2 N 20 32 11 17 - - 0.0
05/01:19pm 28.0 23.4 12.4 38 9.1 N 28 43 15 23 - - 0.0
05/01:09pm 27.0 23.5 12.3 40 8.5 N 22 48 12 26 - - 0.0
05/01:06pm 27.3 24.2 12.1 39 8.8 N 20 48 11 26 - - 0.0
05/01:00pm 24.3 21.0 14.1 53 6.0 NNE 24 35 13 19 - - 0.0
05/12:30pm 21.1 16.9 14.7 67 3.8 NE 30 37 16 20 - - 0.0
05/12:00pm 21.6 16.8 14.7 65 4.1 NNE 33 37 18 20 - - 0.0
05/11:30am 21.8 17.1 14.2 62 4.4 NE 32 37 17 20 - - 0.0
05/11:00am 21.8 17.9 14.4 63 4.3 NNE 28 32 15 17 - - 0.0
05/10:30am 20.7 17.3 12.4 59 4.7 NE 22 37 12 20 - - 0.0
05/10:00am 20.1 16.4 11.6 58 4.7 NNE 22 28 12 15 - - 0.0
05/09:30am 19.7 16.4 11.5 59 4.5 NNE 20 28 11 15 - - 0.0
05/09:00am 19.7 18.4 9.9 53 5.2 NNE 7 15 4 8 - - 0.0
05/08:30am 20.5 17.5 9.1 48 6.0 NNW 15 20 8 11 - - 0.0
05/08:00am 20.1 16.3 9.9 52 5.5 N 20 30 11 16 - - 0.0
05/07:30am 18.9 16.5 9.9 56 4.8 NNW 13 17 7 9 - - 0.0
05/07:00am 17.8 12.6 8.9 56 4.6 N 26 30 14 16 - - 0.0
05/06:30am 16.7 13.0 8.1 57 4.4 NW 17 24 9 13 - - 0.0
05/06:00am 17.5 13.5 8.9 57 4.5 NNW 20 22 11 12 - - 0.0
05/05:30am 17.4 13.7 10.1 62 3.9 NW 20 26 11 14 - - 0.0
05/05:00am 17.9 13.8 8.7 55 4.8 NNW 20 26 11 14 - - 0.0
05/04:30am 18.4 13.6 8.7 53 5.0 NNW 24 35 13 19 - - 0.0
05/04:00am 18.2 13.3 8.5 53 5.0 NW 24 30 13 16 - - 0.0
05/03:30am 16.0 14.6 9.0 63 3.6 SSW 6 9 3 5 - - 0.0
05/03:00am 16.6 13.2 9.1 61 3.9 NW 17 22 9 12 - - 0.0
05/02:30am 15.9 11.9 8.2 60 3.9 WNW 19 22 10 12 - - 0.0
05/02:00am 15.9 12.6 9.6 66 3.3 NW 17 20 9 11 - - 0.0
05/01:30am 15.4 13.1 9.1 66 3.2 NW 11 13 6 7 - - 0.0
05/01:00am 16.5 15.3 9.7 64 3.6 NW 6 7 3 4 - - 0.0
05/12:30am 16.6 15.5 9.8 64 3.6 NW 6 11 3 6 - - 0.0
05/12:00am 17.7 16.5 9.6 59 4.3 SW 6 11 3 6 - - 0.0
 
Date/Time
EST
Temp
°C
App
Temp
°C
Dew
Point
°C
Rel
Hum
%
Delta-T
°C
Wind Press
QNH
hPa
Press
MSL
hPa
Rain since
9am
mm
Dir  Spd
km/h
Gust
km/h
Spd
kts
Gust
kts
04/11:30pm 18.6 15.9 8.8 53 5.1 ESE 13 32 7 17 - - 0.0
04/11:00pm 18.6 17.0 8.6 52 5.2 WSW 7 15 4 8 - - 0.0
04/10:30pm 18.9 15.8 8.8 52 5.3 W 15 22 8 12 - - 0.0
04/10:00pm 19.2 16.3 8.2 49 5.7 SW 13 20 7 11 - - 0.0
04/09:30pm 19.1 16.0 8.7 51 5.4 SSW 15 30 8 16 - - 0.0
04/09:00pm 16.2 15.7 10.9 71 2.8 WSW 4 13 2 7 - - 0.0
04/08:30pm 16.5 16.0 12.7 78 2.1 NNW 7 9 4 5 - - 0.0
04/08:00pm 16.0 15.0 12.2 78 2.1 NNW 9 11 5 6 - - 0.0
04/07:30pm 15.7 15.0 11.5 76 2.3 NNW 6 7 3 4 - - 0.0
04/07:00pm 15.6 15.0 11.6 77 2.2 WSW 6 9 3 5 - - 0.0
04/06:30pm 16.4 15.9 12.2 76 2.3 N 6 7 3 4 - - 0.0
04/06:00pm 16.7 16.2 12.0 74 2.6 NW 6 11 3 6 - - 0.0
04/05:30pm 17.4 15.7 12.5 73 2.7 N 13 15 7 8 - - 0.0
04/05:00pm 17.9 15.7 12.1 69 3.2 N 15 19 8 10 - - 0.0
04/04:30pm 18.5 16.8 12.3 67 3.4 N 13 19 7 10 - - 0.0
04/04:00pm 18.8 17.4 12.1 65 3.7 N 11 17 6 9 - - 0.0
04/03:30pm 19.2 17.4 12.2 64 3.9 N 13 17 7 9 - - 0.0
04/03:00pm 19.3 17.6 11.3 60 4.4 N 11 15 6 8 - - 0.0
04/02:30pm 19.4 17.2 10.9 58 4.6 NNE 13 17 7 9 - - 0.0
04/02:00pm 19.2 17.6 11.7 62 4.1 NE 11 15 6 8 - - 0.0
04/01:30pm 19.2 18.0 11.5 61 4.2 ENE 9 9 5 5 - - 0.0
04/01:00pm 18.7 16.4 11.8 64 3.8 ENE 15 19 8 10 - - 0.0
04/12:30pm 18.9 17.2 12.4 66 3.6 E 13 17 7 9 - - 0.0
04/12:00pm 18.7 16.1 12.0 65 3.7 E 17 20 9 11 - - 0.0
04/11:30am 18.9 15.9 11.9 64 3.9 E 19 22 10 12 - - 0.0
04/11:00am 18.7 16.3 11.5 63 3.9 E 15 17 8 9 - - 0.0
04/10:30am 18.5 16.4 11.1 62 4.0 E 13 15 7 8 - - 0.0
04/10:00am 18.4 16.6 11.0 62 4.0 E 11 13 6 7 - - 0.0
04/09:30am 18.2 15.9 10.6 61 4.1 E 13 17 7 9 - - 0.0
04/09:00am 18.9 17.3 8.6 51 5.3 NW 7 15 4 8 - - 0.0
04/08:30am 17.5 14.4 7.3 51 5.1 SW 13 19 7 10 - - 0.0
04/08:00am 17.4 15.4 8.8 57 4.4 SW 9 15 5 8 - - 0.0
04/07:30am 15.1 13.8 7.6 61 3.7 W 4 9 2 5 - - 0.0
04/07:00am 14.8 13.0 7.1 60 3.8 W 6 9 3 5 - - 0.0
04/06:30am 14.3 12.6 7.4 63 3.4 W 6 9 3 5 - - 0.0
04/06:00am 14.3 12.7 6.4 59 3.8 S 4 7 2 4 - - 0.0
04/05:30am 14.3 12.3 6.4 59 3.8 WSW 6 9 3 5 - - 0.0
04/05:00am 14.6 11.3 6.4 58 4.0 WSW 13 20 7 11 - - 0.0
04/04:30am 14.8 10.7 6.4 57 4.1 SW 17 24 9 13 - - 0.0
04/04:00am 14.8 11.4 6.1 56 4.2 WSW 13 19 7 10 - - 0.0
04/03:30am 15.2 11.1 6.0 54 4.4 WSW 17 26 9 14 - - 0.0
04/03:00am 15.4 11.2 5.6 52 4.7 WSW 17 24 9 13 - - 0.0
04/02:30am 15.7 10.8 5.3 50 4.9 WSW 20 28 11 15 - - 0.0
04/02:00am 15.9 11.1 5.5 50 5.0 SW 20 32 11 17 - - 0.0
04/01:30am 16.0 10.4 5.3 49 5.1 WSW 24 43 13 23 - - 0.0
04/01:19am 16.0 10.1 5.6 50 5.0 WSW 26 41 14 22 - - 0.0
04/01:00am 16.1 9.9 6.3 52 4.8 WSW 28 46 15 25 - - 0.0
04/12:43am 16.2 10.7 6.1 51 4.9 WSW 24 37 13 20 - - 0.0
04/12:30am 16.1 9.9 6.0 51 4.9 WSW 28 48 15 26 - - 0.0
04/12:10am 16.2 10.0 6.1 51 4.9 WSW 28 48 15 26 - - 0.0
04/12:00am 16.1 10.2 6.0 51 4.9 SW 26 43 14 23 - - 0.0
 
Date/Time
EST
Temp
°C
App
Temp
°C
Dew
Point
°C
Rel
Hum
%
Delta-T
°C
Wind Press
QNH
hPa
Press
MSL
hPa
Rain since
9am
mm
Dir  Spd
km/h
Gust
km/h
Spd
kts
Gust
kts
03/11:38pm 15.6 11.0 5.8 52 4.7 SW 19 33 10 18 - - 0.0
03/11:30pm 16.0 9.7 5.9 51 4.9 SW 28 41 15 22 - - 0.0
03/11:21pm 16.1 9.9 6.0 51 4.9 SW 28 50 15 27 - - 0.0
03/11:00pm 15.7 11.0 6.2 53 4.6 WSW 20 35 11 19 - - 0.0
03/10:30pm 15.3 11.2 6.1 54 4.4 SW 17 24 9 13 - - 0.0
03/10:00pm 15.3 12.4 6.3 55 4.4 SW 11 20 6 11 - - 0.0
03/09:30pm 16.0 11.9 6.4 53 4.7 WSW 17 32 9 17 - - 0.0
03/09:00pm 16.4 11.8 6.5 52 4.8 WSW 20 37 11 20 - - 0.0
03/08:30pm 16.7 11.3 6.5 51 5.0 WSW 24 46 13 25 - - 0.0
03/08:25pm 16.8 11.1 6.6 51 5.0 WSW 26 39 14 21 - - 0.0
03/08:10pm 17.0 10.9 6.5 50 5.2 WSW 28 46 15 25 - - 0.0
03/08:00pm 17.3 12.3 6.5 49 5.3 WSW 22 35 12 19 - - 0.0
03/07:30pm 18.1 13.7 6.6 47 5.7 SW 19 32 10 17 - - 0.0
03/07:00pm 19.0 14.6 6.5 44 6.2 SW 19 30 10 16 - - 0.0
03/06:30pm 19.2 15.1 6.3 43 6.4 SW 17 26 9 14 - - 0.0
03/06:00pm 19.8 16.2 5.1 38 7.2 SW 13 19 7 10 - - 0.0
03/05:30pm 21.4 16.3 4.0 32 8.4 WSW 20 41 11 22 - - 0.0
03/05:00pm 22.5 17.5 3.6 29 9.1 WSW 19 35 10 19 - - 0.0
03/04:30pm 23.4 18.1 2.8 26 9.9 W 20 37 11 20 - - 0.0
03/04:00pm 23.8 17.6 2.0 24 10.3 WSW 24 37 13 20 - - 0.0
03/03:30pm 24.6 19.7 2.1 23 10.7 WSW 17 39 9 21 - - 0.0
03/03:25pm 24.6 19.1 0.8 21 11.1 W 19 39 10 21 - - 0.0
03/03:16pm 24.6 17.9 1.5 22 10.9 WSW 26 41 14 22 - - 0.0
03/03:06pm 24.6 18.7 1.5 22 10.9 SW 22 50 12 27 - - 0.0
03/03:00pm 25.1 20.6 4.3 26 10.4 SW 17 32 9 17 - - 0.0
03/02:45pm 24.9 19.5 2.4 23 10.8 W 20 39 11 21 - - 0.0
03/02:35pm 24.8 17.9 2.3 23 10.8 WSW 28 48 15 26 - - 0.0
03/02:30pm 24.9 18.7 2.4 23 10.8 WSW 24 41 13 22 - - 0.0
03/02:22pm 24.9 19.7 2.4 23 10.8 WSW 19 32 10 17 - - 0.0
03/02:04pm 24.9 18.2 3.5 25 10.5 W 28 46 15 25 - - 0.0
03/02:00pm 24.8 19.5 2.9 24 10.6 WSW 20 44 11 24 - - 0.0
03/01:39pm 24.8 19.9 4.0 26 10.3 W 19 50 10 27 - - 0.0
03/01:30pm 24.7 18.6 5.0 28 9.9 W 26 56 14 30 - - 0.0
03/01:19pm 24.9 17.7 5.2 28 10.0 W 32 50 17 27 - - 0.0
03/01:00pm 24.7 18.5 6.0 30 9.6 WSW 28 43 15 23 - - 0.0
03/12:55pm 25.0 18.7 7.6 33 9.2 WSW 30 46 16 25 - - 0.0
03/12:30pm 24.7 18.5 6.0 30 9.6 W 28 46 15 25 - - 0.0
03/12:08pm 24.6 18.7 7.3 33 9.1 W 28 48 15 26 - - 0.0
03/12:07pm 24.6 19.1 7.7 34 8.9 W 26 48 14 26 - - 0.0
03/12:00pm 24.7 19.5 7.4 33 9.1 W 24 41 13 22 - - 0.0
03/11:30am 24.2 18.2 8.6 37 8.4 WSW 30 46 16 25 - - 0.0
03/11:00am 24.4 18.6 9.6 39 8.1 WSW 30 44 16 24 - - 0.0
03/10:33am 24.5 19.1 9.6 39 8.1 WSW 28 59 15 32 - - 0.0
03/10:30am 24.7 19.7 9.4 38 8.3 WSW 26 44 14 24 - - 0.0
03/10:15am 24.7 20.7 10.6 41 7.8 WSW 22 37 12 20 - - 0.0
03/10:06am 24.1 19.2 10.0 41 7.7 WSW 26 46 14 25 - - 0.0
03/10:00am 23.6 18.2 9.6 41 7.6 WSW 28 50 15 27 - - 0.0
03/09:56am 23.9 18.5 9.5 40 7.8 WSW 28 50 15 27 - - 0.0
03/09:30am 23.4 21.4 11.5 47 6.7 WSW 13 20 7 11 - - 0.0
03/09:00am 22.9 21.1 10.7 46 6.7 NW 11 20 6 11 - - 0.0
03/08:30am 21.9 19.4 11.0 50 6.0 NNW 15 20 8 11 - - 0.0
03/08:00am 20.9 17.7 11.3 54 5.3 NNW 19 24 10 13 - - 0.0
03/07:30am 20.2 14.7 10.6 54 5.2 NNW 30 41 16 22 - - 0.0
03/07:29am 20.2 14.8 10.9 55 5.1 NNW 30 41 16 22 - - 0.0
03/07:19am 20.1 14.6 10.5 54 5.2 NNW 30 46 16 25 - - 0.0
03/07:00am 19.0 15.1 10.8 59 4.4 NNW 22 28 12 15 - - 0.0
03/06:30am 18.8 16.5 11.9 64 3.8 NNW 15 24 8 13 - - 0.0
03/06:00am 19.6 16.5 11.6 60 4.4 N 19 26 10 14 - - 0.0
03/05:30am 19.7 16.8 10.9 57 4.8 NW 17 26 9 14 - - 0.0
03/05:00am 19.8 16.0 11.0 57 4.8 NNW 22 26 12 14 - - 0.0
03/04:30am 19.8 16.3 11.0 57 4.8 NW 20 28 11 15 - - 0.0
03/04:00am 19.7 15.6 10.1 54 5.2 WNW 22 28 12 15 - - 0.0
03/03:30am 20.5 18.2 9.1 48 6.0 WSW 11 20 6 11 - - 0.0
03/03:00am 20.5 18.3 9.4 49 5.9 WNW 11 17 6 9 - - 0.0
03/02:30am 20.1 17.9 9.4 50 5.7 WNW 11 17 6 9 - - 0.0
03/02:00am 19.9 17.9 11.4 58 4.7 N 13 19 7 10 - - 0.0
03/01:30am 19.4 16.9 12.4 64 3.9 NE 17 20 9 11 - - 0.0
03/01:00am 20.6 17.7 11.0 54 5.3 NNW 17 24 9 13 - - 0.0
03/12:30am 20.0 16.4 10.4 54 5.2 NNW 20 28 11 15 - - 0.0
03/12:00am 20.1 16.8 10.8 55 5.1 NW 19 26 10 14 - - 0.0
 
Date/Time
EST
Temp
°C
App
Temp
°C
Dew
Point
°C
Rel
Hum
%
Delta-T
°C
Wind Press
QNH
hPa
Press
MSL
hPa
Rain since
9am
mm
Dir  Spd
km/h
Gust
km/h
Spd
kts
Gust
kts
02/11:30pm 19.2 15.7 10.2 56 4.8 NW 19 24 10 13 - - 0.0
02/11:00pm 18.8 15.3 10.9 60 4.3 NW 20 24 11 13 - - 0.0
02/10:30pm 18.1 15.1 10.5 61 4.1 NW 17 19 9 10 - - 0.0
02/10:00pm 20.2 16.6 8.2 46 6.2 WNW 17 22 9 12 - - 0.0
02/09:30pm 18.4 16.1 10.3 59 4.3 NW 13 17 7 9 - - 0.0
02/09:00pm 19.8 15.9 8.8 49 5.8 WNW 19 24 10 13 - - 0.0
02/08:30pm 20.5 16.6 8.5 46 6.3 WNW 19 24 10 13 - - 0.0
02/08:00pm 20.9 17.0 8.5 45 6.5 WNW 19 26 10 14 - - 0.0
02/07:30pm 20.0 17.4 9.3 50 5.7 WNW 13 19 7 10 - - 0.0
02/07:00pm 21.0 19.0 8.6 45 6.5 W 9 11 5 6 - - 0.0
02/06:30pm 22.3 20.2 8.4 41 7.3 W 9 13 5 7 - - 0.0

Latest Capital City Observations: Canberra | Sydney | Melbourne | Brisbane | Adelaide | Perth | Hobart | Darwin

Other formats

Comma delimited format used in spreadsheet applications
http://www.bom.gov.au/fwo/IDN60901/IDN60901.94749.axf

JavaScript Object Notation format (JSON) in row-major order
http://www.bom.gov.au/fwo/IDN60901/IDN60901.94749.json

Data quality

Most of these data are generated automatically and are frequently updated. Quality checks on data are not normally performed. It is possible for incorrect values to appear. Refer to information at About Latest Weather Observations and please check the disclaimer before using these data.